createdAt,value
2022-12-01T11:00:12.019Z,966.69
2022-12-01T11:02:57.895Z,966.60
2022-12-01T11:03:08.812Z,966.65
2022-12-01T11:03:22.047Z,966.66
2022-12-01T11:03:30.863Z,966.66
2022-12-01T11:03:41.201Z,966.68
2022-12-01T11:03:51.932Z,966.69
2022-12-01T11:04:02.678Z,966.69
2022-12-01T11:04:13.354Z,966.67
2022-12-01T11:04:24.068Z,966.64
2022-12-01T11:06:49.713Z,966.64
2022-12-01T11:08:51.359Z,966.63
2022-12-01T11:10:52.622Z,966.63
2022-12-01T11:12:52.732Z,966.61
2022-12-01T11:14:53.340Z,966.57
2022-12-01T11:16:54.158Z,966.55
2022-12-01T11:18:54.846Z,966.54
2022-12-01T11:20:55.448Z,966.54
2022-12-01T11:22:56.052Z,966.48
2022-12-01T11:24:56.644Z,966.49
2022-12-01T11:26:57.257Z,966.50
2022-12-01T11:28:57.845Z,966.51
2022-12-01T11:30:58.430Z,966.47
2022-12-01T11:32:59.019Z,966.47
2022-12-01T11:34:59.583Z,966.49
2022-12-01T11:37:00.158Z,966.50
2022-12-01T11:39:00.775Z,966.48
2022-12-01T11:41:01.339Z,966.46
2022-12-01T11:43:01.918Z,966.46
2022-12-01T11:45:02.478Z,966.44
2022-12-01T11:47:22.148Z,966.42
2022-12-01T11:49:03.559Z,966.41
2022-12-01T11:51:04.135Z,966.40
2022-12-01T11:53:04.713Z,966.43
2022-12-01T11:55:09.967Z,966.44
2022-12-01T11:57:32.400Z,966.43
2022-12-01T11:59:06.288Z,966.43
2022-12-01T12:01:06.926Z,966.43
2022-12-01T12:03:07.589Z,966.41
2022-12-01T12:05:08.152Z,966.42
2022-12-01T12:07:08.730Z,966.42
2022-12-01T12:09:09.374Z,966.46
2022-12-01T12:11:10.107Z,966.45
2022-12-01T12:13:10.679Z,966.41
2022-12-01T12:15:11.236Z,966.41
2022-12-01T12:17:11.823Z,966.39
2022-12-01T12:19:12.379Z,966.33
2022-12-01T12:21:12.944Z,966.33
2022-12-01T12:23:13.503Z,966.31
2022-12-01T12:25:14.044Z,966.29
2022-12-01T12:27:14.613Z,966.29
2022-12-01T12:29:15.183Z,966.32
2022-12-01T12:31:15.778Z,966.32
2022-12-01T12:33:16.331Z,966.28
2022-12-01T12:35:16.900Z,966.25
2022-12-01T12:37:17.475Z,966.23
2022-12-01T12:39:18.033Z,966.23
2022-12-01T12:41:18.649Z,966.27
2022-12-01T12:43:19.233Z,966.26
2022-12-01T12:45:19.878Z,966.22
2022-12-01T12:47:20.447Z,966.20
2022-12-01T12:49:21.264Z,966.25
2022-12-01T12:51:21.420Z,966.26
2022-12-01T12:53:21.981Z,966.25
2022-12-01T12:55:22.564Z,966.22
2022-12-01T12:59:18.934Z,966.22
2022-12-01T13:01:20.888Z,966.20
2022-12-01T13:03:21.604Z,966.18
2022-12-01T13:05:22.296Z,966.20
2022-12-01T13:07:23.043Z,966.20
2022-12-01T13:09:23.755Z,966.23
2022-12-01T13:11:24.454Z,966.27
2022-12-01T13:13:25.159Z,966.26
2022-12-01T13:15:25.906Z,966.25
2022-12-01T13:17:26.608Z,966.26
2022-12-01T13:19:27.306Z,966.27
2022-12-01T13:21:34.104Z,966.28
2022-12-01T13:23:28.836Z,966.27
2022-12-01T13:25:29.508Z,966.27
2022-12-01T13:27:30.230Z,966.26
2022-12-01T13:29:30.949Z,966.23
2022-12-01T13:31:31.809Z,966.25
2022-12-01T13:33:32.548Z,966.22
2022-12-01T13:35:33.274Z,966.23
2022-12-01T13:37:33.974Z,966.21
2022-12-01T13:39:34.671Z,966.21
2022-12-01T13:41:35.395Z,966.23
2022-12-01T13:43:36.106Z,966.22
2022-12-01T13:45:36.862Z,966.24
2022-12-01T13:47:37.548Z,966.23
2022-12-01T13:49:38.313Z,966.22
2022-12-01T13:51:39.003Z,966.20
2022-12-01T13:53:39.795Z,966.19
2022-12-01T13:55:40.476Z,966.22
2022-12-01T13:57:41.180Z,966.22
2022-12-01T13:59:41.896Z,966.23
2022-12-01T14:01:42.636Z,966.21
2022-12-01T14:03:43.350Z,966.22
2022-12-01T14:05:44.045Z,966.20
2022-12-01T14:07:44.804Z,966.19
2022-12-01T14:09:45.543Z,966.19
2022-12-01T14:11:46.251Z,966.16
2022-12-01T14:13:46.955Z,966.18
2022-12-01T14:15:47.698Z,966.17
2022-12-01T14:17:48.384Z,966.17
2022-12-01T14:19:49.124Z,966.18
2022-12-01T14:21:49.836Z,966.16
2022-12-01T14:23:50.538Z,966.16
2022-12-01T14:25:51.243Z,966.14
2022-12-01T14:27:51.949Z,966.14
2022-12-01T14:29:52.651Z,966.15
2022-12-01T14:31:53.363Z,966.14
2022-12-01T14:33:54.069Z,966.15
2022-12-01T14:35:54.781Z,966.18
2022-12-01T14:37:55.477Z,966.17
2022-12-01T14:39:56.177Z,966.18
2022-12-01T14:41:58.690Z,966.18
